Time;durP1;ratioP1;P1;durP2;ratioP2;P2;SDS_P1;SDS_P2;PMS_P1;PMS_P2;Temp;Humidity;BMP_temperature;BMP_pressure;BME280_temperature;BME280_humidity;BME280_pressure;Samples;Min_cycle;Max_cycle;Signal;HPM_P1;HPM_P2
2024/01/04 00:02:13;;;;;;;12.70;3.70;;;;;;;8.31;100.00;99391.78;5049823;28;20059;-93
2024/01/04 00:04:41;;;;;;;10.18;4.22;;;;;;;8.35;100.00;99409.31;5049420;28;20031;-94
2024/01/04 00:07:07;;;;;;;10.50;4.03;;;;;;;8.36;100.00;99419.00;5047937;28;20025;-93
2024/01/04 00:09:32;;;;;;;9.77;3.97;;;;;;;8.28;100.00;99417.25;5049748;28;20044;-95
2024/01/04 00:11:58;;;;;;;11.25;3.85;;;;;;;8.39;100.00;99437.41;5068510;28;20021;-92
2024/01/04 00:14:23;;;;;;;11.00;4.22;;;;;;;8.37;100.00;99431.28;5034274;28;20040;-93
2024/01/04 00:16:48;;;;;;;11.50;4.05;;;;;;;8.12;100.00;99405.00;5070256;28;20473;-93
2024/01/04 00:19:14;;;;;;;8.32;3.72;;;;;;;8.38;100.00;99454.09;5068576;28;20106;-94
2024/01/04 00:21:40;;;;;;;12.30;3.33;;;;;;;8.35;100.00;99456.69;5050641;28;20025;-95
2024/01/04 00:24:06;;;;;;;8.13;3.10;;;;;;;8.26;100.00;99449.69;5049646;28;20453;-95
2024/01/04 00:26:32;;;;;;;12.13;3.25;;;;;;;8.33;100.00;99469.88;5062586;28;20025;-94
2024/01/04 00:28:57;;;;;;;9.15;2.90;;;;;;;8.33;100.00;99483.03;5062728;28;20093;-94
2024/01/04 00:31:22;;;;;;;8.40;2.90;;;;;;;8.19;100.00;99454.13;5044154;28;20025;-94
2024/01/04 00:33:48;;;;;;;7.88;2.67;;;;;;;8.31;100.00;99492.69;5067220;28;20511;-93
2024/01/04 00:36:14;;;;;;;10.30;2.90;;;;;;;8.33;100.00;99493.56;5049457;28;20056;-94
2024/01/04 00:38:39;;;;;;;7.50;2.65;;;;;;;8.18;100.00;99478.69;5066252;28;20051;-95
2024/01/04 00:41:05;;;;;;;8.52;2.45;;;;;;;8.19;100.00;99484.81;5063835;28;20033;-94
2024/01/04 00:43:30;;;;;;;8.88;2.42;;;;;;;8.33;100.00;99506.72;5021718;28;20087;-94
2024/01/04 00:45:56;;;;;;;7.90;2.63;;;;;;;8.32;100.00;99506.72;5031349;28;20031;-92
2024/01/04 00:48:21;;;;;;;6.50;2.40;;;;;;;8.23;100.00;99494.47;5048938;28;20086;-93
2024/01/04 00:50:46;;;;;;;7.03;2.35;;;;;;;8.23;100.00;99505.84;5031279;28;20472;-91
2024/01/04 00:53:12;;;;;;;6.53;2.40;;;;;;;8.27;100.00;99512.88;5031690;28;20115;-94
2024/01/04 00:55:37;;;;;;;7.50;2.50;;;;;;;8.32;100.00;99527.78;5066131;28;20025;-92
2024/01/04 00:58:03;;;;;;;7.88;2.47;;;;;;;8.39;100.00;99540.06;5030809;28;20037;-92
2024/01/04 01:00:29;;;;;;;6.55;2.33;;;;;;;8.34;100.00;99544.44;5048070;28;20096;-92
2024/01/04 01:02:55;;;;;;;8.68;2.50;;;;;;;8.31;100.00;99545.31;5065438;28;20043;-93
2024/01/04 01:05:20;;;;;;;6.85;2.75;;;;;;;8.30;100.00;99548.81;5032417;28;20045;-93
2024/01/04 01:07:46;;;;;;;7.28;2.42;;;;;;;8.38;100.00;99569.91;5066824;28;20060;-92
2024/01/04 01:10:11;;;;;;;7.57;2.40;;;;;;;8.28;100.00;99561.13;5032615;28;20067;-93
2024/01/04 01:12:36;;;;;;;8.55;2.40;;;;;;;8.37;100.00;99574.28;5034919;28;20040;-91
2024/01/04 01:15:02;;;;;;;10.20;2.65;;;;;;;8.39;100.00;99582.19;5040628;28;20082;-95
2024/01/04 01:17:27;;;;;;;6.78;2.40;;;;;;;8.38;100.00;99588.31;5060166;28;20035;-94
2024/01/04 01:19:53;;;;;;;8.88;2.40;;;;;;;8.28;100.00;99569.88;5060939;28;20052;-94
2024/01/04 01:22:19;;;;;;;6.97;2.22;;;;;;;8.14;100.00;99542.72;5043488;28;20086;-94
2024/01/04 01:24:44;;;;;;;7.63;2.50;;;;;;;8.13;100.00;99543.56;5043551;28;20381;-94
2024/01/04 01:27:10;;;;;;;7.38;2.42;;;;;;;8.40;100.00;99595.34;5060631;28;20025;-93
2024/01/04 01:29:35;;;;;;;4.40;2.60;;;;;;;8.40;100.00;99603.25;5060356;28;20052;-93
2024/01/04 01:32:01;;;;;;;6.68;2.58;;;;;;;8.42;100.00;99601.47;5042386;28;20028;-93
2024/01/04 01:34:26;;;;;;;9.13;2.50;;;;;;;8.44;100.00;99614.66;5042743;28;20044;-93
2024/01/04 01:36:52;;;;;;;8.52;2.55;;;;;;;8.42;100.00;99617.28;5042296;28;20377;-93
2024/01/04 01:39:18;;;;;;;6.22;2.60;;;;;;;8.34;100.00;99602.34;5042535;28;20053;-94
2024/01/04 01:41:43;;;;;;;12.63;2.72;;;;;;;8.43;100.00;99626.03;5025243;28;20032;-94
2024/01/04 01:44:09;;;;;;;11.85;2.53;;;;;;;8.29;100.00;99618.13;5042123;28;20056;-94
2024/01/04 01:46:34;;;;;;;7.05;2.45;;;;;;;8.42;100.00;99637.47;5041948;28;20033;-94
2024/01/04 01:49:00;;;;;;;11.02;2.70;;;;;;;8.39;100.00;99647.97;5059345;28;20037;-94
2024/01/04 01:51:26;;;;;;;10.38;2.58;;;;;;;8.41;100.00;99655.00;5041582;28;20037;-93
2024/01/04 01:53:52;;;;;;;7.55;2.83;;;;;;;8.33;100.00;99646.19;5059175;28;20116;-93
2024/01/04 01:56:18;;;;;;;9.48;2.40;;;;;;;8.28;100.00;99633.03;5059486;28;20029;-93
2024/01/04 01:58:43;;;;;;;11.48;2.60;;;;;;;8.44;100.00;99672.56;5059520;28;20025;-93
2024/01/04 02:01:09;;;;;;;7.45;2.50;;;;;;;8.45;100.00;99669.06;5041920;28;20059;-93
2024/01/04 02:03:34;;;;;;;11.02;2.70;;;;;;;8.29;100.00;99647.94;5025129;28;20032;-93
2024/01/04 02:06:00;;;;;;;10.50;2.70;;;;;;;8.34;100.00;99658.47;5041516;28;20103;-94
2024/01/04 02:08:25;;;;;;;9.25;3.45;;;;;;;8.44;100.00;99676.09;5041598;28;20108;-94
2024/01/04 02:10:50;;;;;;;7.57;2.50;;;;;;;8.47;100.00;99685.72;5041778;28;20097;-93
2024/01/04 02:13:16;;;;;;;13.30;2.80;;;;;;;8.35;100.00;99665.53;5059026;28;20459;-94
2024/01/04 02:15:42;;;;;;;11.60;2.92;;;;;;;8.46;100.00;99684.84;5059560;28;20029;-92
2024/01/04 02:18:10;;;;;;;7.68;2.90;;;;;;;8.35;100.00;99667.25;5041578;28;20140;-92
2024/01/04 02:20:35;;;;;;;10.38;3.00;;;;;;;8.18;100.00;99646.16;5041982;28;20025;-93
2024/01/04 02:23:01;;;;;;;11.80;3.00;;;;;;;8.41;100.00;99705.03;5041604;28;20419;-92
2024/01/04 02:25:26;;;;;;;10.02;3.10;;;;;;;8.31;100.00;99695.34;5024871;28;20044;-93
2024/01/04 02:27:52;;;;;;;12.50;3.20;;;;;;;8.36;100.00;99700.63;5057408;28;20481;-94
2024/01/04 02:30:17;;;;;;;9.18;3.05;;;;;;;8.39;100.00;99719.91;5038486;28;20036;-92
2024/01/04 02:32:44;;;;;;;12.55;3.10;;;;;;;8.37;100.00;99715.56;5056314;28;20448;-94
2024/01/04 02:35:10;;;;;;;8.23;2.83;;;;;;;8.35;100.00;99720.78;5056224;28;20031;-93
2024/01/04 02:37:35;;;;;;;10.52;2.80;;;;;;;8.14;100.00;99684.78;5038013;28;20374;-95
2024/01/04 02:40:00;;;;;;;7.90;3.00;;;;;;;8.40;100.00;99721.72;5038489;28;20037;-92
2024/01/04 02:42:26;;;;;;;9.93;3.08;;;;;;;8.39;100.00;99727.81;5055802;28;20040;-93
2024/01/04 02:44:51;;;;;;;11.13;2.92;;;;;;;8.27;100.00;99706.75;5055760;28;20082;-93
2024/01/04 02:47:16;;;;;;;9.60;3.17;;;;;;;8.36;100.00;99725.19;5056215;28;20032;-93
2024/01/04 02:49:42;;;;;;;13.02;3.45;;;;;;;8.33;100.00;99722.53;5005550;28;20120;-94
2024/01/04 02:52:07;;;;;;;9.35;3.10;;;;;;;8.39;100.00;99734.84;5038117;28;20037;-93
2024/01/04 02:54:33;;;;;;;6.68;3.00;;;;;;;8.26;100.00;99720.75;5055984;28;20021;-93
2024/01/04 02:56:58;;;;;;;13.57;3.63;;;;;;;8.26;100.00;99720.75;5055556;28;20111;-94
2024/01/04 02:59:23;;;;;;;7.60;3.13;;;;;;;8.33;100.00;99729.56;5038307;28;20392;-92
2024/01/04 03:01:49;;;;;;;15.48;3.42;;;;;;;8.37;100.00;99741.88;5038155;28;20107;-93
2024/01/04 03:04:15;;;;;;;13.18;3.47;;;;;;;8.39;100.00;99750.63;5021352;28;20047;-92
2024/01/04 03:06:41;;;;;;;7.35;3.00;;;;;;;8.37;100.00;99753.28;5037901;28;20471;-94
2024/01/04 03:09:07;;;;;;;9.88;3.40;;;;;;;8.35;100.00;99756.72;5037654;28;20071;-93
2024/01/04 03:11:33;;;;;;;12.75;3.58;;;;;;;8.36;100.00;99758.50;5021229;28;20032;-93
2024/01/04 03:13:58;;;;;;;7.28;2.90;;;;;;;8.33;100.00;99767.28;5055327;28;20505;-92
2024/01/04 03:16:23;;;;;;;6.20;2.85;;;;;;;8.23;100.00;99752.34;5054920;28;20029;-92
2024/01/04 03:18:49;;;;;;;6.63;3.08;;;;;;;8.29;100.00;99768.13;5054935;28;20139;-91
2024/01/04 03:21:15;;;;;;;8.02;3.28;;;;;;;8.29;100.00;99766.38;5037501;28;20025;-92
2024/01/04 03:23:40;;;;;;;7.65;3.38;;;;;;;8.12;100.00;99740.91;5055163;28;20032;-94
2024/01/04 03:26:05;;;;;;;8.07;3.20;;;;;;;8.33;100.00;99776.94;5020756;28;20029;-94
2024/01/04 03:28:31;;;;;;;8.63;3.15;;;;;;;8.22;100.00;99775.16;5055060;28;20468;-93
2024/01/04 03:30:56;;;;;;;9.23;3.42;;;;;;;8.32;100.00;99801.50;5055000;28;20029;-93
2024/01/04 03:33:22;;;;;;;10.20;3.30;;;;;;;8.18;100.00;99768.13;5054796;28;20061;-93
2024/01/04 03:35:47;;;;;;;6.10;3.10;;;;;;;8.20;100.00;99781.28;5020414;28;20028;-93
2024/01/04 03:38:12;;;;;;;7.10;2.60;;;;;;;8.29;100.00;99797.97;5020494;28;20096;-91
2024/01/04 03:40:38;;;;;;;6.32;3.00;;;;;;;8.14;100.00;99771.63;5054883;28;20036;-92
2024/01/04 03:43:04;;;;;;;6.70;3.10;;;;;;;8.27;100.00;99798.84;5054389;28;20037;-92
2024/01/04 03:45:30;;;;;;;7.68;3.20;;;;;;;8.29;100.00;99818.16;5054620;28;20039;-93
2024/01/04 03:47:56;;;;;;;8.70;3.40;;;;;;;8.23;100.00;99813.75;5037021;28;20078;-93
2024/01/04 03:50:21;;;;;;;5.22;2.95;;;;;;;8.25;100.00;99822.50;5054515;28;20041;-93
2024/01/04 03:52:47;;;;;;;7.78;3.08;;;;;;;8.13;100.00;99803.16;5054187;28;20113;-91
2024/01/04 03:55:15;;;;;;;7.30;3.53;;;;;;;8.21;100.00;99823.38;5036583;28;20056;-93
2024/01/04 03:57:42;;;;;;;7.18;3.15;;;;;;;8.18;100.00;99814.59;5036847;28;20021;-93
2024/01/04 04:00:08;;;;;;;6.55;3.22;;;;;;;8.20;100.00;99826.00;5020474;28;20063;-93
2024/01/04 04:02:34;;;;;;;6.47;3.50;;;;;;;8.18;100.00;99822.47;5037350;28;20052;-93
2024/01/04 04:04:59;;;;;;;5.20;3.08;;;;;;;8.18;100.00;99822.47;5055525;28;20060;-92
2024/01/04 04:07:25;;;;;;;8.13;3.55;;;;;;;8.06;100.00;99804.03;5054896;28;20033;-92
2024/01/04 04:09:50;;;;;;;8.35;3.88;;;;;;;8.00;100.00;99805.75;5020526;28;20196;-93
2024/01/04 04:12:15;;;;;;;9.15;4.22;;;;;;;8.14;100.00;99824.25;5037074;28;20035;-93
2024/01/04 04:14:42;;;;;;;12.02;4.35;;;;;;;8.12;100.00;99830.34;5037276;28;20037;-94
2024/01/04 04:17:07;;;;;;;10.13;4.15;;;;;;;8.09;100.00;99825.06;5054205;28;20063;-92
2024/01/04 04:19:32;;;;;;;9.85;4.20;;;;;;;8.09;100.00;99836.47;5054475;28;20041;-93
2024/01/04 04:21:58;;;;;;;9.63;4.18;;;;;;;8.14;100.00;99831.25;5019800;28;20029;-93
2024/01/04 04:24:26;;;;;;;9.02;4.00;;;;;;;7.97;100.00;99818.03;5054086;28;20339;-92
2024/01/04 04:26:51;;;;;;;12.68;4.43;;;;;;;8.01;100.00;99820.69;5037147;28;20120;-93
2024/01/04 04:29:17;;;;;;;10.98;4.50;;;;;;;8.11;100.00;99847.91;5019833;28;20056;-93
2024/01/04 04:31:42;;;;;;;12.23;4.68;;;;;;;8.15;100.00;99861.94;5019797;28;20063;-94
2024/01/04 04:34:08;;;;;;;12.38;4.50;;;;;;;8.16;100.00;99861.06;5036118;28;20024;-93
2024/01/04 04:36:33;;;;;;;7.93;4.32;;;;;;;8.01;100.00;99836.47;5035963;28;20040;-95
2024/01/04 04:39:02;;;;;;;11.55;4.78;;;;;;;8.11;100.00;99845.28;5035664;28;20049;-93
2024/01/04 04:41:28;;;;;;;10.20;4.60;;;;;;;8.06;100.00;99848.75;5036437;28;20033;-95
2024/01/04 04:43:54;;;;;;;11.38;4.75;;;;;;;8.06;100.00;99847.00;5053932;28;20021;-93
2024/01/04 04:46:19;;;;;;;10.85;5.00;;;;;;;8.16;100.00;99877.75;5019633;28;20025;-94
2024/01/04 04:48:45;;;;;;;13.25;5.00;;;;;;;7.96;100.00;99832.91;5053828;28;20060;-94
2024/01/04 04:51:10;;;;;;;9.20;5.30;;;;;;;8.01;100.00;99851.38;5035402;28;20449;-93
2024/01/04 04:53:36;;;;;;;11.48;5.03;;;;;;;8.13;100.00;99882.09;5053800;28;20039;-94
2024/01/04 04:56:02;;;;;;;11.13;5.25;;;;;;;8.06;100.00;99873.31;5053739;28;20082;-94
2024/01/04 04:58:29;;;;;;;11.50;4.90;;;;;;;8.11;100.00;99881.22;5035725;28;20477;-93
2024/01/04 05:00:55;;;;;;;9.88;4.75;;;;;;;8.03;100.00;99875.91;5055183;28;20116;-93
2024/01/04 05:03:21;;;;;;;10.80;4.90;;;;;;;8.11;100.00;99894.38;5037270;28;20071;-94
2024/01/04 05:05:46;;;;;;;12.45;4.97;;;;;;;7.99;100.00;99871.50;5035372;28;20029;-94
2024/01/04 05:08:11;;;;;;;7.63;4.20;;;;;;;8.10;100.00;99896.16;5053534;28;20033;-92
2024/01/04 05:10:37;;;;;;;10.95;4.60;;;;;;;8.10;100.00;99904.03;5019169;28;20041;-92
2024/01/04 05:13:02;;;;;;;11.85;4.35;;;;;;;8.08;100.00;99897.00;5053354;28;20445;-93
2024/01/04 05:15:27;;;;;;;13.95;4.57;;;;;;;8.08;100.00;99899.63;5018992;28;20020;-94
2024/01/04 05:17:53;;;;;;;12.80;5.00;;;;;;;8.05;100.00;99895.25;5035596;28;20445;-93
2024/01/04 05:20:19;;;;;;;14.80;5.05;;;;;;;8.02;100.00;99887.31;5053318;28;20021;-93
2024/01/04 05:22:45;;;;;;;12.05;5.30;;;;;;;8.04;100.00;99902.22;5035849;28;20033;-94
2024/01/04 05:25:12;;;;;;;8.13;4.70;;;;;;;8.06;100.00;99904.88;5053501;28;20032;-94
2024/01/04 05:27:38;;;;;;;8.40;4.15;;;;;;;8.15;100.00;99914.59;5035459;28;20025;-93
2024/01/04 05:30:03;;;;;;;14.45;5.30;;;;;;;8.15;100.00;99928.63;5035367;28;20028;-94
2024/01/04 05:32:31;;;;;;;7.95;4.55;;;;;;;8.21;100.00;99925.13;5035361;28;20027;-95
2024/01/04 05:34:57;;;;;;;8.68;4.95;;;;;;;8.20;100.00;99932.16;5053213;28;20033;-93
2024/01/04 05:37:22;;;;;;;8.30;4.90;;;;;;;8.23;100.00;99929.53;5052957;28;20061;-94
2024/01/04 05:39:47;;;;;;;9.82;4.95;;;;;;;8.12;100.00;99906.66;5035518;28;20060;-93
2024/01/04 05:42:15;;;;;;;9.68;4.90;;;;;;;8.19;100.00;99922.50;5035328;28;20037;-93
2024/01/04 05:44:40;;;;;;;12.45;5.28;;;;;;;8.22;100.00;99935.69;5018882;28;20037;-94
2024/01/04 05:47:07;;;;;;;9.40;4.85;;;;;;;8.30;100.00;99943.59;5053293;28;20031;-94
2024/01/04 05:49:32;;;;;;;11.32;4.75;;;;;;;8.28;100.00;99946.22;5053032;28;20029;-94
2024/01/04 05:51:58;;;;;;;10.10;4.50;;;;;;;8.18;100.00;99944.44;5035142;28;20476;-94
2024/01/04 05:54:23;;;;;;;8.52;3.90;;;;;;;8.22;100.00;99959.38;5035175;28;20223;-94
2024/01/04 05:56:49;;;;;;;7.90;3.88;;;;;;;8.19;100.00;99969.00;5018878;28;20029;-94
2024/01/04 05:59:14;;;;;;;11.70;3.95;;;;;;;8.06;100.00;99952.25;5035477;28;20025;-95
2024/01/04 06:01:39;;;;;;;10.68;3.85;;;;;;;7.96;100.00;99946.00;5018653;28;20032;-95
2024/01/04 06:04:05;;;;;;;7.45;3.60;;;;;;;8.14;100.00;99982.13;5055132;28;20033;-95
2024/01/04 06:06:31;;;;;;;8.18;3.13;;;;;;;8.11;100.00;99987.34;5056604;28;20068;-94
2024/01/04 06:08:56;;;;;;;4.32;3.05;;;;;;;8.07;100.00;99979.44;5056629;28;20473;-94
2024/01/04 06:11:21;;;;;;;7.22;3.38;;;;;;;8.00;100.00;99967.97;5038969;28;20029;-94
2024/01/04 06:13:47;;;;;;;7.43;3.42;;;;;;;8.05;100.00;99984.69;5038644;28;20111;-94
2024/01/04 06:16:12;;;;;;;6.45;3.00;;;;;;;7.98;100.00;99980.25;5056024;28;20032;-94
2024/01/04 06:18:38;;;;;;;7.40;3.10;;;;;;;8.05;100.00;100000.47;5056390;28;20480;-93
2024/01/04 06:21:05;;;;;;;6.30;3.00;;;;;;;8.01;100.00;99998.69;5056289;28;20159;-94
2024/01/04 06:23:31;;;;;;;5.53;2.58;;;;;;;7.86;100.00;99977.53;5056273;28;20041;-94
2024/01/04 06:25:57;;;;;;;6.78;2.80;;;;;;;7.87;100.00;99993.31;5056163;28;20037;-93
2024/01/04 06:28:23;;;;;;;6.10;3.10;;;;;;;7.98;100.00;100007.44;5038558;28;20079;-94
2024/01/04 06:30:49;;;;;;;8.20;3.38;;;;;;;7.82;100.00;99981.88;5056546;28;20029;-93
2024/01/04 06:33:15;;;;;;;8.23;3.15;;;;;;;7.93;100.00;100005.66;5038288;28;20047;-93
2024/01/04 06:35:41;;;;;;;8.30;3.35;;;;;;;7.69;100.00;99969.50;5038479;28;20411;-93
2024/01/04 06:38:09;;;;;;;5.07;2.90;;;;;;;7.91;100.00;100013.50;5055484;28;20029;-92
2024/01/04 06:40:36;;;;;;;6.03;3.03;;;;;;;7.92;100.00;100020.56;5056094;28;20028;-93
2024/01/04 06:43:03;;;;;;;5.88;3.05;;;;;;;7.93;100.00;100027.56;5055897;28;20074;-93
2024/01/04 06:45:29;;;;;;;7.07;2.95;;;;;;;7.88;100.00;100010.88;5055601;28;20033;-93
2024/01/04 06:47:54;;;;;;;5.20;2.90;;;;;;;7.89;100.00;100022.28;5038014;28;20476;-93
2024/01/04 06:50:20;;;;;;;4.90;3.00;;;;;;;7.89;100.00;100028.41;5021433;28;20029;-92
2024/01/04 06:52:45;;;;;;;5.47;3.20;;;;;;;7.91;100.00;100045.06;5038141;28;20560;-93
2024/01/04 06:55:12;;;;;;;8.32;3.55;;;;;;;7.83;100.00;100027.47;5037892;28;20525;-93
2024/01/04 06:57:38;;;;;;;4.88;2.97;;;;;;;7.94;100.00;100050.38;5055760;28;20346;-93
2024/01/04 07:00:06;;;;;;;8.90;3.20;;;;;;;7.89;100.00;100043.31;5037882;28;20044;-93
2024/01/04 07:02:33;;;;;;;9.13;3.53;;;;;;;7.96;100.00;100056.50;5055468;28;20033;-93
2024/01/04 07:04:59;;;;;;;8.93;3.53;;;;;;;7.90;100.00;100055.59;5055619;28;20086;-93
2024/01/04 07:07:25;;;;;;;9.45;3.53;;;;;;;7.93;100.00;100060.88;5037443;28;20115;-90
2024/01/04 07:09:52;;;;;;;6.90;3.47;;;;;;;7.89;100.00;100065.22;5055589;28;20036;-92
2024/01/04 07:12:18;;;;;;;6.25;3.63;;;;;;;7.90;100.00;100068.75;5037335;28;20032;-90
2024/01/04 07:14:46;;;;;;;7.43;3.67;;;;;;;7.81;100.00;100056.38;5037277;28;20029;-91
2024/01/04 07:17:13;;;;;;;5.80;3.47;;;;;;;7.92;100.00;100077.50;5055261;28;20453;-91
2024/01/04 07:19:41;;;;;;;6.50;3.40;;;;;;;7.88;100.00;100078.34;5037436;28;20029;-92
2024/01/04 07:22:07;;;;;;;8.10;3.50;;;;;;;7.91;100.00;100081.00;5037591;28;20037;-93
2024/01/04 07:24:33;;;;;;;6.57;3.65;;;;;;;7.92;100.00;100080.13;5055157;28;20024;-92
2024/01/04 07:26:58;;;;;;;7.80;3.70;;;;;;;7.90;100.00;100081.88;5021279;28;20036;-92
2024/01/04 07:29:26;;;;;;;9.63;3.22;;;;;;;7.91;100.00;100088.91;5037272;28;20072;-92
2024/01/04 07:31:52;;;;;;;9.00;3.90;;;;;;;7.95;100.00;100106.47;5055097;28;20029;-92
2024/01/04 07:34:18;;;;;;;8.70;3.55;;;;;;;7.94;100.00;100110.00;5037478;28;20116;-92
2024/01/04 07:36:43;;;;;;;9.13;3.50;;;;;;;7.90;100.00;100102.94;5036961;28;20189;-92
2024/01/04 07:39:09;;;;;;;9.57;3.38;;;;;;;7.96;100.00;100111.75;5029620;28;20061;-92
2024/01/04 07:41:34;;;;;;;8.15;3.70;;;;;;;7.98;100.00;100117.03;5017262;28;20043;-92
2024/01/04 07:44:00;;;;;;;10.57;4.72;;;;;;;7.97;100.00;100110.03;5034465;28;20038;-92
2024/01/04 07:46:25;;;;;;;10.05;4.20;;;;;;;7.80;100.00;100074.78;5000627;28;20468;-92
2024/01/04 07:48:50;;;;;;;9.25;3.67;;;;;;;8.02;100.00;100122.34;4984185;28;20033;-93
2024/01/04 07:51:16;;;;;;;9.43;3.47;;;;;;;8.02;100.00;100117.09;5000759;28;20128;-92
2024/01/04 07:53:41;;;;;;;8.75;3.38;;;;;;;7.97;100.00;100107.41;5034522;28;20055;-92
2024/01/04 07:56:07;;;;;;;8.38;4.40;;;;;;;8.10;100.00;100132.94;5034836;28;20087;-92
2024/01/04 07:58:33;;;;;;;9.90;3.95;;;;;;;8.11;100.00;100129.44;5034256;28;20094;-92
2024/01/04 08:00:58;;;;;;;6.30;3.22;;;;;;;8.13;100.00;100132.06;5016409;28;20060;-92
2024/01/04 08:03:24;;;;;;;7.45;3.90;;;;;;;8.14;100.00;100142.63;5034207;28;20037;-90
2024/01/04 08:05:49;;;;;;;10.82;5.75;;;;;;;8.14;100.00;100145.28;5034138;28;20108;-92
2024/01/04 08:08:14;;;;;;;9.75;5.07;;;;;;;8.09;100.00;100139.06;5033989;28;20036;-92
2024/01/04 08:10:40;;;;;;;12.38;4.75;;;;;;;8.17;100.00;100154.94;5040961;28;20057;-92
2024/01/04 08:13:05;;;;;;;8.02;4.40;;;;;;;8.04;100.00;100125.84;5016239;28;20063;-91
2024/01/04 08:15:33;;;;;;;10.43;4.63;;;;;;;8.17;100.00;100147.03;5016323;28;20029;-90
2024/01/04 08:18:00;;;;;;;15.15;5.30;;;;;;;8.10;100.00;100138.22;5023686;28;20111;-91
2024/01/04 08:20:26;;;;;;;15.45;5.13;;;;;;;8.07;100.00;100132.03;5036275;28;20022;-88
2024/01/04 08:22:52;;;;;;;12.27;5.32;;;;;;;8.13;100.00;100150.50;5016311;28;20039;-92
2024/01/04 08:25:17;;;;;;;11.57;5.10;;;;;;;8.11;100.00;100155.75;4999715;28;20029;-88
2024/01/04 08:27:43;;;;;;;11.95;5.68;;;;;;;8.08;100.00;100145.19;5015650;28;20124;-89
2024/01/04 08:30:10;;;;;;;11.75;4.93;;;;;;;8.09;100.00;100151.34;5033448;28;20143;-89
2024/01/04 08:32:35;;;;;;;13.23;5.35;;;;;;;8.08;100.00;100158.34;5016026;28;20033;-89
2024/01/04 08:35:00;;;;;;;13.30;4.95;;;;;;;8.07;100.00;100153.97;5033634;28;20052;-90
2024/01/04 08:37:26;;;;;;;9.63;4.60;;;;;;;8.04;100.00;100146.03;5033306;28;20060;-89
2024/01/04 08:39:53;;;;;;;8.10;4.30;;;;;;;7.98;100.00;100138.09;5045849;28;20407;-87
2024/01/04 08:42:18;;;;;;;12.50;4.50;;;;;;;7.97;100.00;100136.34;5053833;28;20056;-92
2024/01/04 08:44:44;;;;;;;10.00;4.20;;;;;;;7.99;100.00;100131.97;5053175;28;20029;-93
2024/01/04 08:47:12;;;;;;;8.65;3.63;;;;;;;8.17;100.00;100157.56;5019947;28;20037;-90
2024/01/04 08:49:38;;;;;;;8.23;3.22;;;;;;;8.17;100.00;100162.81;5019038;28;20033;-91
2024/01/04 08:52:04;;;;;;;7.90;3.35;;;;;;;8.16;100.00;100166.31;5019398;28;20029;-88
2024/01/04 08:54:29;;;;;;;7.63;2.72;;;;;;;8.10;100.00;100159.25;5053251;28;20036;-89
2024/01/04 08:56:55;;;;;;;8.25;3.00;;;;;;;8.09;100.00;100172.38;5035415;28;20029;-89
2024/01/04 08:59:20;;;;;;;5.95;2.60;;;;;;;8.08;100.00;100178.53;5053516;28;20040;-90
2024/01/04 09:01:46;;;;;;;4.32;2.83;;;;;;;7.96;100.00;100163.47;5053511;28;20111;-93
2024/01/04 09:04:11;;;;;;;6.07;2.95;;;;;;;7.93;100.00;100164.34;5019584;28;20040;-92
2024/01/04 09:06:36;;;;;;;6.07;3.10;;;;;;;7.89;100.00;100175.72;5019474;28;20457;-94
2024/01/04 09:09:05;;;;;;;6.80;2.97;;;;;;;7.98;100.00;100188.94;5053303;28;20122;-94
2024/01/04 09:11:33;;;;;;;6.63;2.88;;;;;;;7.98;100.00;100180.19;5056224;28;20120;-93
2024/01/04 09:14:00;;;;;;;7.82;2.90;;;;;;;8.02;100.00;100190.75;5036329;28;20021;-93
2024/01/04 09:16:26;;;;;;;5.75;2.78;;;;;;;7.85;100.00;100162.50;5036023;28;20033;-92
2024/01/04 09:18:52;;;;;;;4.60;2.53;;;;;;;8.03;100.00;100191.63;5012605;28;20022;-93
2024/01/04 09:21:17;;;;;;;5.78;2.67;;;;;;;7.93;100.00;100174.00;5038870;28;20494;-93
2024/01/04 09:23:44;;;;;;;5.00;3.00;;;;;;;8.07;100.00;100203.97;5054882;28;20036;-93
2024/01/04 09:26:10;;;;;;;6.45;2.80;;;;;;;8.08;100.00;100204.84;5058184;28;20021;-93
2024/01/04 09:28:35;;;;;;;5.15;2.67;;;;;;;8.02;100.00;100189.88;5038202;28;20032;-91
2024/01/04 09:31:01;;;;;;;5.85;2.53;;;;;;;8.10;100.00;100217.16;5054620;28;20036;-94
2024/01/04 09:33:27;;;;;;;4.13;2.50;;;;;;;8.08;100.00;100212.72;5054825;28;20087;-95
2024/01/04 09:35:53;;;;;;;4.35;2.40;;;;;;;8.08;100.00;100221.50;5021225;28;20029;-96
2024/01/04 09:38:19;;;;;;;5.88;2.30;;;;;;;7.96;100.00;100202.94;5057885;28;20039;-88
2024/01/04 09:40:45;;;;;;;4.57;2.40;;;;;;;8.01;100.00;100215.31;5056897;28;20428;-89
2024/01/04 09:43:15;;;;;;;4.60;2.13;;;;;;;7.97;100.00;100210.88;5056560;28;20108;-90
2024/01/04 09:45:43;;;;;;;3.20;2.10;;;;;;;8.00;100.00;100223.16;5038939;28;20385;-89
2024/01/04 09:48:12;;;;;;;3.40;1.90;;;;;;;7.96;100.00;100224.00;5038792;28;20126;-88
2024/01/04 09:50:39;;;;;;;4.13;2.20;;;;;;;7.97;100.00;100231.91;5039339;28;20040;-87
2024/01/04 09:53:06;;;;;;;4.25;2.30;;;;;;;7.96;100.00;100226.63;5056161;28;20025;-89
2024/01/04 09:55:35;;;;;;;5.03;2.20;;;;;;;8.11;100.00;100257.50;5038690;28;20067;-87
2024/01/04 09:58:00;;;;;;;4.00;2.20;;;;;;;8.11;100.00;100262.75;5056187;28;20393;-87
2024/01/04 10:00:27;;;;;;;4.72;2.00;;;;;;;8.14;100.00;100268.94;5038621;28;20033;-87
2024/01/04 10:02:53;;;;;;;4.10;2.03;;;;;;;8.12;100.00;100265.41;5038555;28;20044;-89
2024/01/04 10:05:20;;;;;;;4.68;2.28;;;;;;;8.09;100.00;100259.22;5056397;28;20357;-88
2024/01/04 10:08:07;;;;;;;4.10;1.90;;;;;;;8.04;100.00;100265.31;5055962;28;20033;-89
2024/01/04 10:10:40;;;;;;;7.13;2.00;;;;;;;8.02;100.00;100264.41;5030946;28;20377;-89
2024/01/04 10:13:08;;;;;;;4.05;2.15;;;;;;;7.96;100.00;100260.81;5034896;28;20021;-90
2024/01/04 10:15:36;;;;;;;2.88;2.10;;;;;;;8.10;100.00;100282.94;5030620;28;20432;-90
2024/01/04 10:18:02;;;;;;;3.78;2.08;;;;;;;8.09;100.00;100281.16;5055686;28;20056;-87
2024/01/04 10:20:29;;;;;;;4.03;1.95;;;;;;;8.10;100.00;100280.31;5056093;28;20033;-88
2024/01/04 10:22:57;;;;;;;3.72;2.00;;;;;;;8.10;100.00;100290.84;5021966;28;20028;-88
2024/01/04 10:25:22;;;;;;;4.15;2.22;;;;;;;8.06;100.00;100278.50;5056218;28;20075;-89
2024/01/04 10:27:58;;;;;;;5.25;2.20;;;;;;;8.08;100.00;100281.13;5056024;28;20154;-88
2024/01/04 10:30:24;;;;;;;3.85;2.83;;;;;;;8.09;100.00;100282.91;5021693;28;20029;-87
2024/01/04 10:32:50;;;;;;;4.72;2.20;;;;;;;7.99;100.00;100267.00;5021464;28;20510;-88
2024/01/04 10:35:23;;;;;;;4.18;2.35;;;;;;;7.94;100.00;100262.56;5055721;28;20056;-89
2024/01/04 10:37:58;;;;;;;4.20;2.47;;;;;;;8.13;100.00;100292.59;5055349;28;20032;-89
2024/01/04 10:40:25;;;;;;;6.28;2.80;;;;;;;8.03;100.00;100276.69;5055574;28;20516;-87
2024/01/04 10:42:53;;;;;;;5.50;2.60;;;;;;;8.11;100.00;100289.06;5055660;28;20036;-89
2024/01/04 10:45:32;;;;;;;4.05;2.63;;;;;;;8.11;100.00;100292.59;5058232;28;20033;-87
2024/01/04 10:47:57;;;;;;;4.57;2.60;;;;;;;8.12;100.00;100293.47;5056003;28;20473;-88
2024/01/04 10:50:24;;;;;;;5.30;2.60;;;;;;;8.16;100.00;100293.53;5036379;28;20092;-87
2024/01/04 10:52:56;;;;;;;4.07;2.50;;;;;;;8.10;100.00;100282.94;5055353;28;20029;-89
2024/01/04 10:55:23;;;;;;;6.00;2.55;;;;;;;8.17;100.00;100284.75;5055273;28;20031;-89
2024/01/04 10:57:50;;;;;;;4.38;2.40;;;;;;;8.23;100.00;100295.38;5037504;28;20078;-91
2024/01/04 11:00:20;;;;;;;6.30;2.40;;;;;;;8.23;100.00;100284.84;5037787;28;20368;-89
2024/01/04 11:02:47;;;;;;;3.63;2.00;;;;;;;8.31;100.00;100290.19;5055095;28;20021;-87
2024/01/04 11:05:17;;;;;;;3.08;2.08;;;;;;;8.34;100.00;100299.84;5056513;28;20052;-87
2024/01/04 11:07:43;;;;;;;4.35;2.03;;;;;;;8.31;100.00;100302.44;5056316;28;20036;-89
2024/01/04 11:10:12;;;;;;;2.95;2.17;;;;;;;8.27;100.00;100309.44;5055153;28;20031;-87
2024/01/04 11:12:38;;;;;;;2.75;1.95;;;;;;;8.13;100.00;100268.91;5038077;28;20025;-87
2024/01/04 11:15:04;;;;;;;3.72;1.90;;;;;;;8.42;100.00;100309.63;5037370;28;20025;-89
2024/01/04 11:17:55;;;;;;;2.53;1.73;;;;;;;8.51;100.00;100307.09;5037283;28;20032;-89
2024/01/04 11:20:40;;;;;;;3.65;2.00;;;;;;;8.39;100.00;100280.63;5037127;28;20111;-89
2024/01/04 11:23:48;;;;;;;3.95;2.00;;;;;;;8.51;100.00;100300.94;5036717;28;20029;-87